Time;durP1;ratioP1;P1;durP2;ratioP2;P2;SDS_P1;SDS_P2;PMS_P1;PMS_P2;Temp;Humidity;BMP_temperature;BMP_pressure;BME280_temperature;BME280_humidity;BME280_pressure;Samples;Min_cycle;Max_cycle;Signal;HPM_P1;HPM_P2
2022/01/12 00:00:22;;;;;;;;;;;4.30;99.90;;;;;;5016961;28;19913;-72
2022/01/12 00:02:48;;;;;;;;;;;4.40;99.90;;;;;;5010484;28;20382;-70
2022/01/12 00:05:15;;;;;;;;;;;4.50;99.90;;;;;;5019175;28;19949;-70
2022/01/12 00:07:40;;;;;;;;;;;4.50;99.90;;;;;;4997307;28;19956;-69
2022/01/12 00:10:06;;;;;;;;;;;4.50;99.90;;;;;;5020605;28;19956;-71
2022/01/12 00:12:32;;;;;;;;;;;4.40;99.90;;;;;;5016668;28;19920;-70
2022/01/12 00:14:57;;;;;;;;;;;4.40;99.90;;;;;;5000165;28;19913;-71
2022/01/12 00:17:23;;;;;;;;;;;4.30;99.90;;;;;;5023620;28;20273;-71
2022/01/12 00:19:48;;;;;;;;;;;4.40;99.90;;;;;;5027561;28;19921;-71
2022/01/12 00:22:14;;;;;;;;;;;4.30;99.90;;;;;;5023169;28;19994;-71
2022/01/12 00:25:03;;;;;;;;;;;4.30;99.90;;;;;;5017227;28;19917;-69
2022/01/12 00:33:11;;;;;;;;;;;4.30;99.90;;;;;;5023751;28;19955;-69
2022/01/12 00:35:44;;;;;;;;;;;4.40;99.90;;;;;;5020794;28;19909;-70
2022/01/12 00:38:10;;;;;;;;;;;4.50;99.90;;;;;;5012168;28;20291;-71
2022/01/12 00:40:39;;;;;;;;;;;4.40;99.90;;;;;;5000260;28;19917;-68
2022/01/12 00:43:05;;;;;;;;;;;4.40;99.90;;;;;;5016547;28;20278;-69
2022/01/12 00:45:34;;;;;;;;;;;4.30;99.90;;;;;;4994616;28;19929;-74
2022/01/12 00:48:00;;;;;;;;;;;4.20;99.90;;;;;;5016090;28;19914;-71
2022/01/12 00:50:26;;;;;;;;;;;4.20;99.90;;;;;;5011130;28;19932;-71
2022/01/12 00:52:53;;;;;;;;;;;4.30;99.90;;;;;;5023584;28;19914;-70
2022/01/12 00:55:18;;;;;;;;;;;4.20;99.90;;;;;;5039731;28;19913;-69
2022/01/12 00:57:44;;;;;;;;;;;4.20;99.90;;;;;;5031730;28;19964;-68
2022/01/12 01:00:10;;;;;;;;;;;4.30;99.90;;;;;;5018035;28;19921;-72
2022/01/12 01:02:35;;;;;;;;;;;4.40;99.90;;;;;;5019278;28;20255;-70
2022/01/12 01:05:02;;;;;;;;;;;4.30;99.90;;;;;;5021732;28;19966;-75
2022/01/12 01:07:27;;;;;;;;;;;4.30;99.90;;;;;;5021247;28;20047;-68
2022/01/12 01:10:03;;;;;;;;;;;4.40;99.90;;;;;;5017573;28;19925;-68
2022/01/12 01:12:28;;;;;;;;;;;4.40;99.90;;;;;;5015863;28;19939;-72
2022/01/12 01:15:08;;;;;;;;;;;4.40;99.90;;;;;;5022415;28;19913;-69
2022/01/12 01:25:47;;;;;;;;;;;4.20;99.90;;;;;;4932485;28;19915;-68
2022/01/12 01:28:13;;;;;;;;;;;4.30;99.90;;;;;;5017821;28;19913;-70
2022/01/12 01:30:40;;;;;;;;;;;4.30;99.90;;;;;;5017243;28;19932;-69
2022/01/12 01:33:08;;;;;;;;;;;4.30;99.90;;;;;;5021375;28;20008;-70
2022/01/12 01:35:35;;;;;;;;;;;4.20;99.90;;;;;;5020716;28;19913;-69
2022/01/12 01:38:02;;;;;;;;;;;4.20;99.90;;;;;;5021951;28;19924;-70
2022/01/12 01:40:32;;;;;;;;;;;4.20;99.90;;;;;;5015393;28;19972;-70
2022/01/12 01:53:41;;;;;;;;;;;4.20;99.90;;;;;;5043399;28;19943;-68
2022/01/12 01:56:06;;;;;;;;;;;4.10;99.90;;;;;;5045696;28;20381;-70
2022/01/12 01:58:32;;;;;;;;;;;4.20;99.90;;;;;;5046659;28;19908;-69
2022/01/12 02:00:58;;;;;;;;;;;4.30;99.90;;;;;;5045087;28;19916;-68
2022/01/12 02:03:27;;;;;;;;;;;4.30;99.90;;;;;;5044759;28;19915;-70
2022/01/12 02:05:53;;;;;;;;;;;4.40;99.90;;;;;;5037547;28;19913;-69
2022/01/12 02:08:19;;;;;;;;;;;4.40;99.90;;;;;;5030158;28;19913;-68
2022/01/12 02:10:44;;;;;;;;;;;4.40;99.90;;;;;;5025563;28;19917;-69
2022/01/12 02:13:10;;;;;;;;;;;4.40;99.90;;;;;;5043129;28;19940;-72
2022/01/12 02:15:36;;;;;;;;;;;4.40;99.90;;;;;;5026262;28;20225;-69
2022/01/12 02:18:09;;;;;;;;;;;4.40;99.90;;;;;;5024384;28;19932;-69
2022/01/12 02:40:24;;;;;;;;;;;4.50;99.90;;;;;;5010802;28;19957;-70
2022/01/12 02:43:01;;;;;;;;;;;4.40;99.90;;;;;;5023862;28;19912;-70
2022/01/12 02:51:11;;;;;;;;;;;4.40;99.90;;;;;;5031222;28;19963;-69
2022/01/12 02:53:43;;;;;;;;;;;4.40;99.90;;;;;;5025241;28;19912;-69
2022/01/12 02:56:17;;;;;;;;;;;4.30;99.90;;;;;;5032212;28;19921;-70
2022/01/12 02:58:44;;;;;;;;;;;4.20;99.90;;;;;;5043179;28;19912;-69
2022/01/12 03:03:37;;;;;;;;;;;4.30;99.90;;;;;;5027194;28;20035;-69
2022/01/12 03:06:05;;;;;;;;;;;4.30;99.90;;;;;;5024965;28;19913;-69
2022/01/12 03:08:36;;;;;;;;;;;4.30;99.90;;;;;;5026478;28;19923;-69
2022/01/12 03:11:03;;;;;;;;;;;4.30;99.90;;;;;;5024408;28;20371;-69
2022/01/12 03:13:29;;;;;;;;;;;4.40;99.90;;;;;;5027291;28;19939;-69
2022/01/12 03:15:54;;;;;;;;;;;4.50;99.90;;;;;;5045589;28;20444;-71
2022/01/12 03:18:20;;;;;;;;;;;4.60;99.90;;;;;;5040761;28;19913;-69
2022/01/12 03:20:45;;;;;;;;;;;4.70;99.90;;;;;;5034012;28;19913;-74
2022/01/12 03:23:13;;;;;;;;;;;4.60;99.90;;;;;;5039060;28;19913;-76
2022/01/12 03:25:38;;;;;;;;;;;4.60;99.90;;;;;;5054161;28;19913;-69
2022/01/12 03:28:06;;;;;;;;;;;4.60;99.90;;;;;;5044581;28;19916;-72
2022/01/12 03:30:40;;;;;;;;;;;4.70;99.90;;;;;;5044359;28;19917;-70
2022/01/12 03:33:17;;;;;;;;;;;4.80;99.90;;;;;;5015764;28;19913;-70
2022/01/12 03:35:51;;;;;;;;;;;4.80;99.90;;;;;;5024055;28;20282;-70
2022/01/12 03:38:20;;;;;;;;;;;4.80;99.90;;;;;;5023846;28;19913;-69
2022/01/12 03:40:49;;;;;;;;;;;4.90;99.90;;;;;;5005779;28;19913;-70
2022/01/12 03:43:15;;;;;;;;;;;4.80;99.90;;;;;;5008813;28;19932;-69
2022/01/12 03:45:42;;;;;;;;;;;4.70;99.90;;;;;;5028242;28;19962;-69
2022/01/12 03:48:07;;;;;;;;;;;4.70;99.90;;;;;;5032101;28;20023;-71
2022/01/12 03:50:33;;;;;;;;;;;4.70;99.90;;;;;;5040873;28;19975;-74
2022/01/12 03:52:58;;;;;;;;;;;4.80;99.90;;;;;;5029155;28;19940;-72
2022/01/12 03:55:24;;;;;;;;;;;4.70;99.90;;;;;;5041319;28;19971;-67
2022/01/12 03:57:49;;;;;;;;;;;4.80;99.90;;;;;;5043406;28;20342;-69
2022/01/12 04:00:15;;;;;;;;;;;4.80;99.90;;;;;;5039655;28;19935;-66
2022/01/12 04:02:40;;;;;;;;;;;4.80;99.90;;;;;;5029553;28;19939;-70
2022/01/12 04:10:16;;;;;;;;;;;4.70;99.90;;;;;;5027976;28;19920;-69
2022/01/12 04:12:42;;;;;;;;;;;4.80;99.90;;;;;;5026711;28;19913;-69
2022/01/12 04:15:07;;;;;;;;;;;4.90;99.90;;;;;;5009175;28;19966;-69
2022/01/12 04:17:32;;;;;;;;;;;4.90;99.90;;;;;;5026493;28;20578;-70
2022/01/12 04:20:01;;;;;;;;;;;4.90;99.90;;;;;;5025687;28;20420;-70
2022/01/12 04:25:11;;;;;;;;;;;5.00;99.90;;;;;;5039667;28;20035;-69
2022/01/12 04:27:37;;;;;;;;;;;4.90;99.90;;;;;;5045816;28;19985;-70
2022/01/12 04:30:03;;;;;;;;;;;4.90;99.90;;;;;;5046495;28;20266;-73
2022/01/12 04:32:29;;;;;;;;;;;4.90;99.90;;;;;;5026745;28;20286;-74
2022/01/12 04:34:55;;;;;;;;;;;4.80;99.90;;;;;;4999390;28;20311;-72
2022/01/12 04:37:20;;;;;;;;;;;4.80;99.90;;;;;;5031928;28;19971;-70
2022/01/12 04:39:46;;;;;;;;;;;4.80;99.90;;;;;;5040618;28;20345;-69
2022/01/12 04:42:11;;;;;;;;;;;4.80;99.90;;;;;;5026762;28;19941;-69
2022/01/12 04:44:43;;;;;;;;;;;4.90;99.90;;;;;;5026719;28;19916;-70
2022/01/12 04:47:15;;;;;;;;;;;5.00;99.90;;;;;;5009494;28;19921;-72
2022/01/12 04:49:47;;;;;;;;;;;5.00;99.90;;;;;;5026607;28;20401;-69
2022/01/12 04:52:14;;;;;;;;;;;5.10;99.90;;;;;;5038334;28;19944;-69
2022/01/12 04:54:39;;;;;;;;;;;5.00;99.90;;;;;;5045560;28;19972;-69
2022/01/12 04:57:05;;;;;;;;;;;4.90;99.90;;;;;;5045289;28;19921;-69
2022/01/12 04:59:34;;;;;;;;;;;5.00;99.90;;;;;;5027566;28;20076;-69
2022/01/12 05:02:12;;;;;;;;;;;4.90;99.90;;;;;;5046155;28;19924;-69
2022/01/12 05:07:41;;;;;;;;;;;5.00;99.90;;;;;;5027208;28;19920;-69
2022/01/12 05:12:53;;;;;;;;;;;5.00;99.90;;;;;;5028802;28;19924;-70
2022/01/12 05:15:27;;;;;;;;;;;5.00;99.90;;;;;;5008220;28;19949;-70
2022/01/12 05:17:53;;;;;;;;;;;5.10;99.90;;;;;;5040098;28;19913;-69
2022/01/12 05:20:19;;;;;;;;;;;5.10;99.90;;;;;;5031929;28;19940;-70
2022/01/12 05:22:44;;;;;;;;;;;5.20;99.90;;;;;;5037638;28;19920;-69
2022/01/12 05:25:10;;;;;;;;;;;5.10;99.90;;;;;;5025586;28;19913;-70
2022/01/12 05:27:35;;;;;;;;;;;5.10;99.90;;;;;;5019646;28;19957;-70
2022/01/12 05:30:01;;;;;;;;;;;5.10;99.90;;;;;;5031103;28;19921;-73
2022/01/12 05:32:27;;;;;;;;;;;5.10;99.90;;;;;;5029779;28;19913;-71
2022/01/12 05:34:58;;;;;;;;;;;5.10;99.90;;;;;;5028458;28;20331;-67
2022/01/12 05:37:23;;;;;;;;;;;5.10;99.90;;;;;;5031215;28;19970;-70
2022/01/12 05:39:49;;;;;;;;;;;5.10;99.90;;;;;;5037195;28;19996;-69
2022/01/12 05:42:14;;;;;;;;;;;5.20;99.90;;;;;;5010229;28;19920;-71
2022/01/12 05:44:41;;;;;;;;;;;5.10;99.90;;;;;;5026440;28;20294;-69
2022/01/12 05:47:17;;;;;;;;;;;5.00;99.90;;;;;;5008000;28;19913;-69
2022/01/12 05:49:44;;;;;;;;;;;5.10;99.90;;;;;;5030293;28;20286;-70
2022/01/12 05:52:10;;;;;;;;;;;5.20;99.90;;;;;;5006813;28;19980;-69
2022/01/12 05:54:35;;;;;;;;;;;5.20;99.90;;;;;;5036332;28;20330;-69
2022/01/12 05:57:01;;;;;;;;;;;5.20;99.90;;;;;;5025524;28;20432;-70
2022/01/12 05:59:26;;;;;;;;;;;5.20;99.90;;;;;;5024822;28;19920;-70
2022/01/12 06:01:52;;;;;;;;;;;5.20;99.90;;;;;;5023761;28;20029;-69
2022/01/12 06:04:17;;;;;;;;;;;5.10;99.90;;;;;;5016051;28;20382;-69
2022/01/12 06:06:43;;;;;;;;;;;5.30;99.90;;;;;;5046244;28;19955;-70
2022/01/12 06:09:08;;;;;;;;;;;5.30;99.90;;;;;;5041128;28;19939;-70
2022/01/12 06:11:34;;;;;;;;;;;5.30;99.90;;;;;;5025710;28;19909;-70
2022/01/12 06:13:59;;;;;;;;;;;5.20;99.90;;;;;;5030337;28;19968;-69
2022/01/12 06:16:25;;;;;;;;;;;5.40;99.90;;;;;;5029065;28;19975;-69
2022/01/12 06:18:52;;;;;;;;;;;5.40;99.90;;;;;;5027936;28;19943;-68
2022/01/12 06:21:17;;;;;;;;;;;5.40;99.90;;;;;;5030991;28;19913;-72
2022/01/12 06:23:43;;;;;;;;;;;5.50;99.90;;;;;;5042807;28;20019;-74
2022/01/12 06:26:09;;;;;;;;;;;5.40;99.90;;;;;;5047219;28;19935;-70
2022/01/12 06:28:38;;;;;;;;;;;5.40;99.90;;;;;;5055712;28;19920;-74
2022/01/12 06:31:10;;;;;;;;;;;5.40;99.90;;;;;;5057350;28;19942;-74
2022/01/12 06:33:46;;;;;;;;;;;5.40;99.90;;;;;;5042503;28;19910;-75
2022/01/12 06:36:13;;;;;;;;;;;5.30;99.90;;;;;;5035252;28;19952;-69
2022/01/12 06:38:38;;;;;;;;;;;5.20;99.90;;;;;;5047919;28;19909;-74
2022/01/12 06:41:04;;;;;;;;;;;5.30;99.90;;;;;;5030105;28;19979;-72
2022/01/12 06:43:30;;;;;;;;;;;5.30;99.90;;;;;;5027268;28;19917;-72
2022/01/12 06:45:56;;;;;;;;;;;5.30;99.90;;;;;;5027036;28;19913;-72
2022/01/12 06:48:21;;;;;;;;;;;5.40;99.90;;;;;;5023496;28;19909;-69
2022/01/12 06:50:47;;;;;;;;;;;5.60;99.90;;;;;;5040570;28;19917;-69
2022/01/12 06:53:12;;;;;;;;;;;5.60;99.90;;;;;;5055059;28;20007;-69
2022/01/12 06:55:38;;;;;;;;;;;5.60;99.90;;;;;;5021953;28;20010;-69
2022/01/12 06:58:03;;;;;;;;;;;5.60;99.90;;;;;;5015750;28;20020;-69
2022/01/12 07:00:29;;;;;;;;;;;5.50;99.90;;;;;;5019152;28;19913;-72
2022/01/12 07:02:54;;;;;;;;;;;5.50;99.90;;;;;;5020792;28;19924;-71
2022/01/12 07:05:20;;;;;;;;;;;5.60;99.90;;;;;;5025827;28;19913;-74
2022/01/12 07:07:45;;;;;;;;;;;5.40;99.90;;;;;;5044486;28;20370;-71
2022/01/12 07:10:10;;;;;;;;;;;5.10;99.90;;;;;;5034536;28;19935;-69
2022/01/12 07:12:36;;;;;;;;;;;5.00;99.90;;;;;;5025567;28;20030;-71
2022/01/12 07:15:02;;;;;;;;;;;4.90;99.90;;;;;;5024873;28;19916;-70
2022/01/12 07:17:27;;;;;;;;;;;4.90;99.90;;;;;;5031772;28;19924;-70
2022/01/12 07:19:53;;;;;;;;;;;4.80;99.90;;;;;;5029689;28;20011;-69
2022/01/12 07:22:18;;;;;;;;;;;4.80;99.90;;;;;;5042341;28;20408;-70
2022/01/12 07:24:44;;;;;;;;;;;4.80;99.90;;;;;;5030021;28;19909;-73
2022/01/12 07:27:09;;;;;;;;;;;4.80;99.90;;;;;;5026832;28;19967;-71
2022/01/12 07:29:35;;;;;;;;;;;4.70;99.90;;;;;;5023735;28;20421;-71
2022/01/12 07:32:00;;;;;;;;;;;4.70;99.90;;;;;;5028082;28;19909;-72
2022/01/12 07:34:25;;;;;;;;;;;4.60;99.90;;;;;;5023890;28;19936;-70
2022/01/12 07:36:51;;;;;;;;;;;4.50;99.90;;;;;;5028276;28;19995;-71
2022/01/12 07:39:16;;;;;;;;;;;4.50;99.90;;;;;;5009916;28;19964;-73
2022/01/12 07:41:42;;;;;;;;;;;4.50;99.90;;;;;;5016814;28;19913;-74
2022/01/12 07:44:08;;;;;;;;;;;4.60;99.90;;;;;;5019600;28;19921;-70
2022/01/12 07:46:33;;;;;;;;;;;4.70;99.90;;;;;;5020546;28;20015;-70
2022/01/12 07:48:59;;;;;;;;;;;4.80;99.90;;;;;;5019261;28;20004;-70
2022/01/12 07:51:24;;;;;;;;;;;4.60;99.90;;;;;;5025126;28;19913;-75
2022/01/12 07:53:50;;;;;;;;;;;4.70;99.90;;;;;;5013945;28;19917;-69
2022/01/12 07:56:15;;;;;;;;;;;4.80;99.90;;;;;;5026761;28;19910;-68
2022/01/12 07:58:41;;;;;;;;;;;4.90;99.90;;;;;;5027750;28;19917;-74
2022/01/12 08:01:09;;;;;;;;;;;5.00;99.90;;;;;;5021364;28;20298;-73
2022/01/12 08:03:35;;;;;;;;;;;5.20;99.90;;;;;;5023191;28;19914;-71
2022/01/12 08:06:00;;;;;;;;;;;5.10;99.90;;;;;;5013401;28;19913;-70
2022/01/12 08:08:26;;;;;;;;;;;5.10;99.90;;;;;;5023419;28;19925;-69
2022/01/12 08:10:51;;;;;;;;;;;5.00;99.90;;;;;;5025945;28;19920;-71
2022/01/12 08:13:17;;;;;;;;;;;4.90;99.90;;;;;;5025637;28;19967;-72
2022/01/12 08:15:42;;;;;;;;;;;5.00;99.90;;;;;;5004809;28;20466;-72
2022/01/12 08:18:08;;;;;;;;;;;5.00;99.90;;;;;;5007675;28;20444;-70
2022/01/12 08:20:34;;;;;;;;;;;5.00;99.90;;;;;;5027058;28;20391;-71
2022/01/12 08:22:59;;;;;;;;;;;4.90;99.90;;;;;;5029152;28;19924;-69
2022/01/12 08:25:25;;;;;;;;;;;4.80;99.90;;;;;;5019701;28;20242;-70
2022/01/12 08:27:51;;;;;;;;;;;4.70;99.90;;;;;;5013658;28;19996;-69
2022/01/12 08:30:18;;;;;;;;;;;4.70;99.90;;;;;;5024781;28;19925;-69
2022/01/12 08:32:45;;;;;;;;;;;4.70;99.90;;;;;;5030188;28;19948;-68
2022/01/12 08:35:10;;;;;;;;;;;4.70;99.90;;;;;;5023421;28;19971;-70
2022/01/12 08:37:36;;;;;;;;;;;4.60;99.90;;;;;;5021515;28;21567;-70
2022/01/12 08:40:02;;;;;;;;;;;4.60;99.90;;;;;;5033093;28;20004;-71
2022/01/12 08:42:28;;;;;;;;;;;4.70;99.90;;;;;;5028338;28;19987;-70
2022/01/12 08:44:53;;;;;;;;;;;4.70;99.90;;;;;;5050556;28;19908;-68
2022/01/12 08:47:19;;;;;;;;;;;4.70;99.90;;;;;;5024873;28;19959;-69
2022/01/12 08:49:44;;;;;;;;;;;4.60;99.90;;;;;;5019944;28;20074;-69
2022/01/12 08:52:10;;;;;;;;;;;4.50;99.90;;;;;;5022225;28;19924;-71
2022/01/12 08:54:35;;;;;;;;;;;4.50;99.90;;;;;;5019867;28;20434;-67
2022/01/12 08:57:01;;;;;;;;;;;4.60;99.90;;;;;;5033025;28;19909;-74
2022/01/12 08:59:27;;;;;;;;;;;4.60;99.90;;;;;;5010428;28;19913;-74
2022/01/12 09:01:52;;;;;;;;;;;4.60;99.90;;;;;;5031232;28;20085;-69
2022/01/12 09:04:17;;;;;;;;;;;4.60;99.90;;;;;;5017277;28;19956;-69
2022/01/12 09:06:43;;;;;;;;;;;4.60;99.90;;;;;;5019816;28;19913;-69
2022/01/12 09:09:08;;;;;;;;;;;4.60;99.90;;;;;;5019037;28;19931;-68
2022/01/12 09:11:34;;;;;;;;;;;4.60;99.90;;;;;;5020351;28;19913;-69
2022/01/12 09:14:00;;;;;;;;;;;4.70;99.90;;;;;;5018163;28;19921;-69
2022/01/12 09:16:26;;;;;;;;;;;4.80;99.90;;;;;;5006542;28;19913;-69
2022/01/12 09:18:51;;;;;;;;;;;4.60;99.90;;;;;;5022466;28;19924;-68
2022/01/12 09:21:17;;;;;;;;;;;4.60;99.90;;;;;;5030307;28;19983;-70
2022/01/12 09:23:44;;;;;;;;;;;4.60;99.90;;;;;;5041350;28;19979;-70
2022/01/12 09:26:10;;;;;;;;;;;4.50;99.90;;;;;;5032822;28;19947;-70
2022/01/12 09:28:39;;;;;;;;;;;4.60;99.90;;;;;;5041888;28;20125;-71
2022/01/12 09:31:05;;;;;;;;;;;4.70;99.90;;;;;;5027352;28;19967;-71
2022/01/12 09:33:30;;;;;;;;;;;4.80;99.90;;;;;;5025928;28;19988;-72
2022/01/12 09:35:56;;;;;;;;;;;4.70;99.90;;;;;;5034139;28;19996;-71
2022/01/12 09:38:22;;;;;;;;;;;4.70;99.90;;;;;;5045691;28;19912;-71
2022/01/12 09:40:50;;;;;;;;;;;4.80;99.90;;;;;;5032563;28;19959;-69
2022/01/12 09:43:15;;;;;;;;;;;4.80;99.90;;;;;;5021443;28;20427;-69
2022/01/12 09:45:48;;;;;;;;;;;4.60;99.90;;;;;;5015277;28;19929;-69
2022/01/12 09:48:14;;;;;;;;;;;4.50;99.90;;;;;;5036968;28;19919;-70
2022/01/12 09:50:39;;;;;;;;;;;4.60;99.90;;;;;;5045582;28;19917;-70
2022/01/12 09:53:05;;;;;;;;;;;4.70;99.90;;;;;;5045537;28;19917;-70
2022/01/12 09:55:30;;;;;;;;;;;4.70;99.90;;;;;;5045392;28;19909;-71
2022/01/12 09:57:56;;;;;;;;;;;4.70;99.90;;;;;;5045297;28;19916;-70
2022/01/12 10:00:23;;;;;;;;;;;4.50;99.90;;;;;;5044172;28;19908;-68
2022/01/12 10:02:49;;;;;;;;;;;4.40;99.90;;;;;;5046019;28;19931;-70
2022/01/12 10:05:14;;;;;;;;;;;4.40;99.90;;;;;;5044249;28;20359;-74
2022/01/12 10:07:40;;;;;;;;;;;4.40;99.90;;;;;;5025749;28;19925;-71
2022/01/12 10:10:07;;;;;;;;;;;4.50;99.90;;;;;;5023677;28;19913;-70
2022/01/12 10:12:33;;;;;;;;;;;4.60;99.90;;;;;;5026319;28;19909;-70
2022/01/12 10:15:00;;;;;;;;;;;4.50;99.90;;;;;;5025470;28;20029;-72
2022/01/12 10:17:37;;;;;;;;;;;4.40;99.90;;;;;;5025711;28;19909;-70
2022/01/12 10:20:13;;;;;;;;;;;4.40;99.90;;;;;;5034669;28;20205;-69
2022/01/12 10:22:42;;;;;;;;;;;4.40;99.90;;;;;;5047670;28;20007;-72
2022/01/12 10:25:18;;;;;;;;;;;4.50;99.90;;;;;;5045496;28;19909;-71
2022/01/12 10:27:44;;;;;;;;;;;4.40;99.90;;;;;;5045776;28;20307;-71
2022/01/12 10:30:17;;;;;;;;;;;4.50;99.90;;;;;;5047113;28;19934;-72
2022/01/12 10:32:43;;;;;;;;;;;4.40;99.90;;;;;;5033494;28;19956;-74
2022/01/12 10:35:09;;;;;;;;;;;4.50;99.90;;;;;;5024302;28;20397;-71
2022/01/12 10:37:35;;;;;;;;;;;4.50;99.90;;;;;;5025083;28;20351;-70
2022/01/12 10:40:00;;;;;;;;;;;4.60;99.90;;;;;;5022492;28;19959;-73
2022/01/12 10:42:27;;;;;;;;;;;4.80;99.90;;;;;;5028537;28;20278;-70
2022/01/12 10:44:54;;;;;;;;;;;4.90;99.90;;;;;;5018906;28;19909;-70
2022/01/12 10:47:24;;;;;;;;;;;4.90;99.90;;;;;;5009620;28;19917;-70
2022/01/12 10:49:52;;;;;;;;;;;4.80;99.90;;;;;;5018274;28;20435;-71
2022/01/12 10:52:17;;;;;;;;;;;4.90;99.90;;;;;;5018302;28;19967;-70
2022/01/12 10:54:43;;;;;;;;;;;4.90;99.90;;;;;;5021014;28;21079;-71
2022/01/12 10:57:15;;;;;;;;;;;4.80;99.90;;;;;;5019132;28;20290;-71
2022/01/12 10:59:41;;;;;;;;;;;4.80;99.90;;;;;;5012733;28;19995;-69
2022/01/12 11:02:06;;;;;;;;;;;4.70;99.90;;;;;;5018771;28;20210;-70
2022/01/12 11:04:32;;;;;;;;;;;4.70;99.90;;;;;;5020385;28;20417;-70
2022/01/12 11:06:58;;;;;;;;;;;4.80;99.90;;;;;;5023100;28;19915;-70
2022/01/12 11:09:24;;;;;;;;;;;5.00;99.90;;;;;;5015482;28;19971;-69
2022/01/12 11:11:49;;;;;;;;;;;5.10;99.90;;;;;;5008566;28;19983;-71
2022/01/12 11:14:15;;;;;;;;;;;5.20;99.90;;;;;;5015857;28;19913;-71
2022/01/12 11:16:40;;;;;;;;;;;5.00;99.90;;;;;;5023303;28;19985;-70
2022/01/12 11:19:06;;;;;;;;;;;4.80;99.90;;;;;;5011634;28;20365;-70
2022/01/12 11:21:35;;;;;;;;;;;4.70;99.90;;;;;;5018899;28;19913;-71
2022/01/12 11:24:02;;;;;;;;;;;4.80;99.90;;;;;;5005875;28;20202;-71
2022/01/12 11:26:29;;;;;;;;;;;4.80;99.90;;;;;;5024566;28;20294;-71
2022/01/12 11:28:55;;;;;;;;;;;4.80;99.90;;;;;;5016953;28;20533;-71
2022/01/12 11:31:26;;;;;;;;;;;4.80;99.90;;;;;;5024463;28;19921;-71
2022/01/12 11:33:51;;;;;;;;;;;5.00;99.90;;;;;;5031815;28;19924;-69
2022/01/12 11:36:20;;;;;;;;;;;5.10;99.90;;;;;;5057896;28;21754;-68
2022/01/12 11:38:50;;;;;;;;;;;4.90;99.90;;;;;;5034407;28;19969;-69
2022/01/12 11:41:22;;;;;;;;;;;4.90;99.90;;;;;;5027840;28;19909;-67
2022/01/12 11:43:48;;;;;;;;;;;4.90;99.90;;;;;;5005102;28;19946;-72
2022/01/12 11:46:15;;;;;;;;;;;5.20;99.90;;;;;;5027146;28;19909;-70
2022/01/12 11:48:43;;;;;;;;;;;5.30;99.90;;;;;;5040772;28;20012;-70
2022/01/12 11:51:09;;;;;;;;;;;5.30;99.90;;;;;;5014872;28;19917;-72
2022/01/12 11:53:46;;;;;;;;;;;5.20;99.90;;;;;;5041805;28;19916;-72
2022/01/12 11:56:14;;;;;;;;;;;5.20;99.90;;;;;;5009910;28;19928;-70
2022/01/12 11:58:53;;;;;;;;;;;5.30;99.90;;;;;;5024580;28;19913;-75
2022/01/12 12:01:18;;;;;;;;;;;5.50;99.90;;;;;;5017224;28;20012;-71
2022/01/12 12:04:00;;;;;;;;;;;5.60;99.90;;;;;;5017023;28;19956;-71
2022/01/12 12:06:26;;;;;;;;;;;5.60;99.90;;;;;;5030688;28;19913;-69
2022/01/12 12:09:12;;;;;;;;;;;5.60;99.90;;;;;;5001913;28;20194;-69
2022/01/12 12:11:37;;;;;;;;;;;5.60;99.90;;;;;;5033265;28;19925;-72
2022/01/12 12:14:05;;;;;;;;;;;5.50;99.90;;;;;;5023084;28;20120;-72
2022/01/12 12:16:32;;;;;;;;;;;5.50;99.90;;;;;;5045587;28;19980;-71
2022/01/12 12:19:00;;;;;;;;;;;5.60;99.90;;;;;;5030554;28;19913;-67
2022/01/12 12:21:25;;;;;;;;;;;5.70;99.90;;;;;;5036283;28;20015;-71
2022/01/12 12:23:52;;;;;;;;;;;5.80;99.90;;;;;;5024055;28;20003;-70
2022/01/12 12:26:19;;;;;;;;;;;5.70;99.90;;;;;;5049490;28;19940;-72
2022/01/12 12:28:54;;;;;;;;;;;5.70;99.90;;;;;;5050853;28;20167;-70
2022/01/12 12:31:24;;;;;;;;;;;5.90;99.90;;;;;;5032718;28;20008;-69
2022/01/12 12:34:03;;;;;;;;;;;5.90;99.90;;;;;;5016338;28;19935;-69
2022/01/12 12:36:29;;;;;;;;;;;5.90;99.90;;;;;;5015240;28;19914;-69
2022/01/12 12:39:05;;;;;;;;;;;5.60;99.90;;;;;;5035909;28;20010;-72
2022/01/12 12:41:38;;;;;;;;;;;5.70;99.90;;;;;;5034368;28;19913;-71
2022/01/12 12:44:04;;;;;;;;;;;5.80;99.90;;;;;;5048256;28;19909;-71
2022/01/12 12:46:30;;;;;;;;;;;5.90;99.90;;;;;;5047873;28;19913;-69
2022/01/12 12:48:55;;;;;;;;;;;5.70;99.90;;;;;;5047811;28;19916;-71
2022/01/12 12:51:20;;;;;;;;;;;5.90;99.90;;;;;;5037006;28;19917;-69
2022/01/12 12:53:47;;;;;;;;;;;5.90;99.90;;;;;;5031905;28;20008;-69
2022/01/12 12:56:16;;;;;;;;;;;5.90;99.90;;;;;;5036968;28;20039;-69
2022/01/12 12:58:48;;;;;;;;;;;5.90;99.90;;;;;;5044995;28;19923;-73
2022/01/12 13:01:15;;;;;;;;;;;5.90;99.90;;;;;;5033505;28;19909;-71
2022/01/12 13:03:47;;;;;;;;;;;5.90;99.90;;;;;;5049563;28;19917;-72
2022/01/12 13:06:20;;;;;;;;;;;5.90;99.90;;;;;;5045908;28;20429;-74
2022/01/12 13:08:53;;;;;;;;;;;5.90;99.90;;;;;;5040327;28;19916;-69
2022/01/12 13:11:18;;;;;;;;;;;5.80;99.90;;;;;;5044769;28;20107;-70
2022/01/12 13:13:54;;;;;;;;;;;5.90;99.90;;;;;;5047681;28;19919;-68
2022/01/12 13:16:19;;;;;;;;;;;5.90;99.90;;;;;;5047212;28;19999;-69
2022/01/12 13:18:47;;;;;;;;;;;6.10;99.90;;;;;;5048312;28;19909;-73
2022/01/12 13:21:16;;;;;;;;;;;6.10;99.90;;;;;;5048063;28;20316;-73
2022/01/12 13:23:46;;;;;;;;;;;6.10;99.90;;;;;;5038601;28;20125;-70
2022/01/12 13:26:13;;;;;;;;;;;6.20;99.90;;;;;;5029676;28;19916;-71
2022/01/12 13:28:40;;;;;;;;;;;6.20;99.90;;;;;;5028153;28;20003;-70
2022/01/12 13:31:07;;;;;;;;;;;6.20;99.90;;;;;;5010609;28;20020;-70
2022/01/12 13:33:34;;;;;;;;;;;6.30;99.90;;;;;;5030305;28;19917;-70
2022/01/12 13:36:16;;;;;;;;;;;6.10;99.90;;;;;;5047407;28;19975;-72
2022/01/12 13:38:43;;;;;;;;;;;6.00;99.90;;;;;;5047083;28;19923;-71
2022/01/12 13:41:13;;;;;;;;;;;6.10;99.90;;;;;;5032421;28;19928;-71
2022/01/12 13:43:40;;;;;;;;;;;6.10;99.90;;;;;;5047995;28;19919;-74
2022/01/12 13:46:14;;;;;;;;;;;6.20;99.90;;;;;;5047261;28;20399;-73
2022/01/12 13:48:52;;;;;;;;;;;6.20;99.90;;;;;;5047079;28;19947;-70
2022/01/12 13:51:26;;;;;;;;;;;6.20;99.90;;;;;;5048041;28;19916;-70
2022/01/12 13:54:01;;;;;;;;;;;6.10;99.90;;;;;;5051413;28;19920;-70
2022/01/12 13:56:33;;;;;;;;;;;6.20;99.90;;;;;;5011946;28;19913;-71
2022/01/12 13:58:58;;;;;;;;;;;6.20;99.90;;;;;;5010532;28;19909;-71
2022/01/12 14:01:29;;;;;;;;;;;6.10;99.90;;;;;;5029818;28;19962;-70
2022/01/12 14:04:06;;;;;;;;;;;6.20;99.90;;;;;;5049755;28;19908;-70
2022/01/12 14:06:37;;;;;;;;;;;6.20;99.90;;;;;;5041294;28;20083;-67
2022/01/12 14:09:08;;;;;;;;;;;6.30;99.90;;;;;;5034194;28;19989;-70
2022/01/12 14:11:37;;;;;;;;;;;6.40;99.90;;;;;;5040481;28;20066;-71
2022/01/12 14:14:03;;;;;;;;;;;6.40;99.90;;;;;;5036773;28;19913;-68
2022/01/12 14:16:30;;;;;;;;;;;6.50;99.90;;;;;;5035568;28;19920;-73
2022/01/12 14:18:59;;;;;;;;;;;6.40;99.90;;;;;;5049431;28;19912;-71
2022/01/12 14:21:24;;;;;;;;;;;6.40;99.90;;;;;;5051325;28;20029;-70
2022/01/12 14:23:50;;;;;;;;;;;6.40;99.90;;;;;;5039812;28;20597;-70
2022/01/12 14:26:21;;;;;;;;;;;6.40;99.90;;;;;;5025508;28;19955;-70
2022/01/12 14:28:46;;;;;;;;;;;6.20;99.90;;;;;;5024218;28;19920;-71
2022/01/12 14:31:12;;;;;;;;;;;6.20;99.90;;;;;;5032847;28;19917;-72
2022/01/12 14:33:37;;;;;;;;;;;6.30;99.90;;;;;;5039422;28;19937;-71
2022/01/12 14:36:03;;;;;;;;;;;6.30;99.90;;;;;;5033630;28;20366;-70
2022/01/12 14:38:28;;;;;;;;;;;6.30;99.90;;;;;;5028237;28;19909;-71
2022/01/12 14:40:54;;;;;;;;;;;6.30;99.90;;;;;;5011070;28;19987;-71
2022/01/12 14:43:19;;;;;;;;;;;6.30;99.90;;;;;;5026800;28;20282;-71
2022/01/12 14:45:45;;;;;;;;;;;6.30;99.90;;;;;;5031116;28;19913;-70
2022/01/12 14:48:11;;;;;;;;;;;6.20;99.90;;;;;;5044555;28;19919;-71
2022/01/12 14:50:38;;;;;;;;;;;6.30;99.90;;;;;;5045979;28;20349;-74
2022/01/12 14:53:04;;;;;;;;;;;6.40;99.90;;;;;;5026400;28;19913;-72
2022/01/12 14:55:30;;;;;;;;;;;6.30;99.90;;;;;;5026735;28;20023;-70
2022/01/12 14:57:56;;;;;;;;;;;6.40;99.90;;;;;;5039748;28;20000;-71
2022/01/12 15:00:24;;;;;;;;;;;6.40;99.90;;;;;;5027536;28;19913;-71
2022/01/12 15:02:57;;;;;;;;;;;6.50;99.90;;;;;;5043807;28;20046;-71
2022/01/12 15:05:23;;;;;;;;;;;6.40;99.90;;;;;;5043719;28;19916;-69
2022/01/12 15:07:48;;;;;;;;;;;6.20;99.90;;;;;;5044180;28;19909;-71
2022/01/12 15:10:14;;;;;;;;;;;6.10;99.90;;;;;;5029039;28;20350;-71
2022/01/12 15:12:41;;;;;;;;;;;6.10;99.90;;;;;;5036635;28;20565;-70
2022/01/12 15:15:08;;;;;;;;;;;6.20;99.90;;;;;;5027872;28;20562;-69
2022/01/12 15:17:34;;;;;;;;;;;6.20;99.90;;;;;;5021004;28;20241;-71
2022/01/12 15:20:01;;;;;;;;;;;6.10;99.90;;;;;;5025707;28;19913;-71
2022/01/12 15:22:27;;;;;;;;;;;6.00;99.90;;;;;;5032543;28;19936;-71
2022/01/12 15:24:52;;;;;;;;;;;6.00;99.90;;;;;;5023701;28;20226;-72
2022/01/12 15:27:18;;;;;;;;;;;6.10;99.90;;;;;;5024556;28;19909;-70
2022/01/12 15:29:44;;;;;;;;;;;6.10;99.90;;;;;;5023897;28;19925;-73
2022/01/12 15:32:09;;;;;;;;;;;6.10;99.90;;;;;;5030289;28;20208;-71
2022/01/12 15:34:35;;;;;;;;;;;6.10;99.90;;;;;;5007477;28;20316;-72
2022/01/12 15:37:01;;;;;;;;;;;6.10;99.90;;;;;;5033504;28;20155;-70